createdAt,value
2018-12-19T00:00:57.307Z,5.67
2018-12-19T00:03:25.221Z,4.23
2018-12-19T00:05:53.103Z,4.00
2018-12-19T00:08:21.113Z,4.20
2018-12-19T00:10:49.080Z,4.00
2018-12-19T00:13:19.466Z,4.40
2018-12-19T00:15:47.492Z,4.67
2018-12-19T00:18:15.388Z,4.30
2018-12-19T00:20:43.323Z,3.90
2018-12-19T00:23:11.288Z,4.53
2018-12-19T00:25:39.164Z,4.13
2018-12-19T00:28:07.122Z,4.10
2018-12-19T00:30:35.037Z,4.83
2018-12-19T00:33:03.019Z,4.87
2018-12-19T00:35:30.870Z,4.30
2018-12-19T00:37:58.748Z,4.40
2018-12-19T00:40:26.691Z,4.07
2018-12-19T00:42:54.583Z,4.10
2018-12-19T00:45:22.432Z,4.03
2018-12-19T00:47:50.327Z,4.47
2018-12-19T00:50:18.239Z,4.23
2018-12-19T00:52:46.111Z,4.47
2018-12-19T00:55:14.083Z,3.87
2018-12-19T00:57:41.959Z,4.53
2018-12-19T01:00:09.969Z,4.07
2018-12-19T01:02:37.861Z,4.07
2018-12-19T01:05:06.299Z,3.47
2018-12-19T01:07:34.212Z,4.07
2018-12-19T01:10:02.237Z,3.40
2018-12-19T01:12:30.129Z,3.73
2018-12-19T01:14:57.971Z,3.63
2018-12-19T01:17:25.894Z,3.73
2018-12-19T01:19:53.772Z,3.70
2018-12-19T01:22:21.699Z,4.40
2018-12-19T01:24:49.611Z,3.87
2018-12-19T01:27:17.520Z,4.20
2018-12-19T01:29:45.403Z,3.50
2018-12-19T01:32:13.286Z,4.13
2018-12-19T01:34:41.133Z,4.13
2018-12-19T01:37:09.028Z,4.37
2018-12-19T01:39:36.923Z,3.63
2018-12-19T01:42:04.879Z,4.20
2018-12-19T01:44:32.745Z,3.80
2018-12-19T01:47:00.591Z,3.77
2018-12-19T01:49:28.517Z,3.83
2018-12-19T01:51:56.495Z,4.20
2018-12-19T01:54:24.360Z,4.07
2018-12-19T01:56:52.215Z,4.00
2018-12-19T01:59:20.171Z,3.93
2018-12-19T02:01:47.998Z,4.40
2018-12-19T02:04:15.885Z,3.83
2018-12-19T02:06:43.770Z,4.00
2018-12-19T02:09:11.834Z,4.00
2018-12-19T02:11:39.743Z,4.33
2018-12-19T02:16:42.095Z,4.10
2018-12-19T02:19:09.955Z,3.90
2018-12-19T02:21:37.853Z,4.30
2018-12-19T02:24:05.707Z,3.70
2018-12-19T02:26:33.612Z,4.23
2018-12-19T02:29:01.447Z,4.30
2018-12-19T02:31:29.348Z,4.00
2018-12-19T02:33:57.495Z,3.87
2018-12-19T02:36:25.476Z,3.67
2018-12-19T02:38:53.486Z,3.93
2018-12-19T02:41:21.620Z,4.13
2018-12-19T02:43:49.767Z,4.40
2018-12-19T02:46:17.592Z,4.40
2018-12-19T02:48:45.500Z,4.03
2018-12-19T02:51:13.383Z,4.10
2018-12-19T02:53:41.317Z,4.40
2018-12-19T02:56:09.211Z,4.00
2018-12-19T02:58:37.075Z,4.17
2018-12-19T03:01:05.060Z,4.70
2018-12-19T03:03:32.980Z,4.70
2018-12-19T03:06:00.907Z,4.47
2018-12-19T03:08:28.840Z,3.97
2018-12-19T03:10:56.816Z,4.30
2018-12-19T03:13:24.788Z,4.00
2018-12-19T03:15:52.805Z,4.00
2018-12-19T03:18:20.708Z,4.93
2018-12-19T03:20:48.615Z,4.50
2018-12-19T03:23:32.779Z,5.53
2018-12-19T03:26:00.681Z,4.43
2018-12-19T03:28:28.568Z,5.30
2018-12-19T03:30:56.494Z,4.73
2018-12-19T03:33:24.836Z,4.67
2018-12-19T03:35:52.706Z,4.93
2018-12-19T03:38:23.456Z,4.77
2018-12-19T03:40:51.359Z,5.40
2018-12-19T03:43:19.287Z,4.87
2018-12-19T03:45:47.174Z,5.43
2018-12-19T03:48:20.765Z,5.47
2018-12-19T03:50:48.591Z,5.70
2018-12-19T03:53:16.496Z,5.20
2018-12-19T03:55:44.344Z,5.80
2018-12-19T03:58:12.333Z,6.00
2018-12-19T04:00:40.155Z,5.80
2018-12-19T04:03:08.072Z,5.70
2018-12-19T04:05:35.960Z,5.90
2018-12-19T04:08:03.909Z,6.33
2018-12-19T04:10:31.854Z,6.57
2018-12-19T04:12:59.748Z,6.07
2018-12-19T04:15:27.687Z,6.57
2018-12-19T04:17:55.588Z,6.80
2018-12-19T04:20:23.490Z,6.50
2018-12-19T04:22:51.372Z,6.33
2018-12-19T04:25:19.259Z,5.53
2018-12-19T04:27:47.176Z,6.87
2018-12-19T04:30:15.113Z,6.73
2018-12-19T04:32:43.023Z,6.60
2018-12-19T04:35:10.918Z,6.87
2018-12-19T04:37:38.951Z,6.33
2018-12-19T04:40:06.955Z,6.70
2018-12-19T04:42:34.812Z,7.10
2018-12-19T04:45:02.899Z,6.83
2018-12-19T04:47:30.803Z,7.33
2018-12-19T04:49:58.682Z,7.10
2018-12-19T04:52:26.563Z,7.20
2018-12-19T04:54:54.514Z,7.57
2018-12-19T04:57:22.444Z,7.40
2018-12-19T04:59:50.312Z,7.20
2018-12-19T05:02:18.241Z,7.30
2018-12-19T05:04:46.121Z,7.03
2018-12-19T05:07:14.025Z,7.57
2018-12-19T05:09:41.912Z,7.07
2018-12-19T05:12:09.788Z,7.77
2018-12-19T05:14:37.966Z,7.23
2018-12-19T05:17:05.896Z,7.13
2018-12-19T05:19:33.772Z,6.83
2018-12-19T05:22:01.633Z,7.70
2018-12-19T05:24:29.599Z,7.80
2018-12-19T05:26:58.480Z,7.67
2018-12-19T05:29:26.423Z,7.63
2018-12-19T05:31:54.434Z,7.47
2018-12-19T05:34:22.302Z,6.87
2018-12-19T05:36:50.192Z,7.27
2018-12-19T05:39:18.080Z,7.50
2018-12-19T05:41:45.977Z,7.20
2018-12-19T05:44:13.881Z,6.73
2018-12-19T05:46:41.806Z,6.70
2018-12-19T05:49:09.714Z,6.90
2018-12-19T05:51:37.715Z,7.50
2018-12-19T05:54:05.627Z,7.20
2018-12-19T05:56:33.488Z,6.73
2018-12-19T05:59:01.385Z,6.90
2018-12-19T06:01:29.282Z,8.87
2018-12-19T06:03:57.184Z,8.13
2018-12-19T06:06:25.071Z,8.27
2018-12-19T06:08:53.014Z,7.93
2018-12-19T06:11:20.903Z,7.57
2018-12-19T06:13:48.901Z,8.43
2018-12-19T06:16:17.280Z,7.93
2018-12-19T06:18:45.165Z,7.93
2018-12-19T06:21:13.112Z,8.03
2018-12-19T06:23:41.053Z,7.53
2018-12-19T06:26:08.981Z,7.60
2018-12-19T06:28:36.830Z,8.10
2018-12-19T06:31:04.774Z,8.10
2018-12-19T06:33:32.647Z,9.97
2018-12-19T06:36:01.084Z,8.40
2018-12-19T06:38:28.988Z,9.23
2018-12-19T06:40:57.038Z,8.33
2018-12-19T06:43:24.946Z,7.07
2018-12-19T06:45:53.009Z,7.90
2018-12-19T06:48:20.888Z,7.20
2018-12-19T06:50:48.798Z,8.27
2018-12-19T06:53:16.759Z,8.87
2018-12-19T06:55:44.668Z,9.30
2018-12-19T06:58:12.550Z,8.57
2018-12-19T07:00:40.417Z,9.50
2018-12-19T07:03:08.267Z,9.17
2018-12-19T07:05:36.152Z,9.53
2018-12-19T07:08:04.100Z,10.00
2018-12-19T07:10:32.012Z,8.03
2018-12-19T07:12:59.872Z,10.53
2018-12-19T07:15:27.752Z,9.70
2018-12-19T07:17:55.640Z,10.00
2018-12-19T07:20:23.534Z,10.57
2018-12-19T07:22:51.388Z,10.47
2018-12-19T07:25:19.274Z,10.83
2018-12-19T07:27:47.187Z,11.77
2018-12-19T07:30:15.112Z,11.17
2018-12-19T07:32:43.027Z,10.07
2018-12-19T07:35:10.976Z,10.57
2018-12-19T07:37:38.833Z,11.47
2018-12-19T07:40:06.772Z,11.77
2018-12-19T07:42:34.736Z,11.03
2018-12-19T07:45:02.706Z,10.67
2018-12-19T07:47:30.600Z,10.80
2018-12-19T07:49:58.541Z,11.13
2018-12-19T07:52:27.312Z,11.50
2018-12-19T07:54:55.432Z,9.93
2018-12-19T07:57:23.379Z,10.57
2018-12-19T07:59:51.241Z,10.60
2018-12-19T08:02:19.295Z,11.73
2018-12-19T08:04:47.201Z,11.07
2018-12-19T08:07:15.055Z,11.67
2018-12-19T08:09:42.935Z,10.80
2018-12-19T08:12:10.927Z,11.57
2018-12-19T08:14:38.825Z,11.43
2018-12-19T08:17:06.929Z,10.33
2018-12-19T08:19:34.836Z,10.33
2018-12-19T08:22:02.711Z,11.57
2018-12-19T08:24:30.657Z,10.37
2018-12-19T08:26:58.612Z,11.53
2018-12-19T08:29:26.545Z,10.67
2018-12-19T08:31:54.544Z,10.60
2018-12-19T08:34:22.557Z,12.33
2018-12-19T08:36:50.497Z,11.90
2018-12-19T08:39:18.492Z,11.47
2018-12-19T08:41:46.559Z,12.60
2018-12-19T08:44:14.455Z,11.77
2018-12-19T08:46:42.411Z,11.83
2018-12-19T08:49:10.295Z,11.43
2018-12-19T08:51:38.200Z,12.20
2018-12-19T08:54:06.077Z,10.37
2018-12-19T08:56:33.991Z,11.97
2018-12-19T08:59:01.873Z,11.43
2018-12-19T09:01:29.753Z,11.33
2018-12-19T09:03:57.640Z,10.27
2018-12-19T09:06:25.555Z,11.83
2018-12-19T09:08:53.439Z,12.00
2018-12-19T09:11:21.317Z,10.90
2018-12-19T09:13:49.278Z,11.70
2018-12-19T09:16:17.168Z,10.50
2018-12-19T09:18:45.068Z,11.50
2018-12-19T09:21:12.995Z,11.07
2018-12-19T09:23:40.923Z,12.03
2018-12-19T09:26:08.791Z,11.03
2018-12-19T09:28:36.840Z,11.40
2018-12-19T09:31:04.748Z,10.33
2018-12-19T09:33:32.657Z,11.80
2018-12-19T09:36:00.567Z,11.37
2018-12-19T09:38:28.779Z,11.27
2018-12-19T09:40:56.844Z,10.80
2018-12-19T09:43:24.907Z,10.60
2018-12-19T09:45:57.360Z,10.60
2018-12-19T09:48:25.256Z,11.80
2018-12-19T09:50:53.164Z,10.87
2018-12-19T09:53:21.277Z,10.97
2018-12-19T09:55:49.318Z,11.10
2018-12-19T09:58:29.813Z,10.77
2018-12-19T10:00:57.828Z,11.07
2018-12-19T10:03:25.745Z,10.80
2018-12-19T10:05:53.600Z,11.17
2018-12-19T10:08:21.537Z,10.97
2018-12-19T10:10:49.447Z,10.33
2018-12-19T10:13:17.371Z,11.00
2018-12-19T10:15:45.253Z,11.37
2018-12-19T10:18:13.146Z,12.00
2018-12-19T10:20:41.070Z,11.63
2018-12-19T10:23:08.981Z,11.97
2018-12-19T10:25:36.887Z,11.70
2018-12-19T10:28:04.815Z,11.80
2018-12-19T10:30:37.164Z,10.47
2018-12-19T10:33:05.032Z,11.03
2018-12-19T10:35:43.080Z,10.63
2018-12-19T10:38:11.025Z,11.60
2018-12-19T10:40:38.900Z,10.80
2018-12-19T10:43:06.817Z,11.40
2018-12-19T10:45:34.750Z,9.80
2018-12-19T10:48:02.691Z,10.90
2018-12-19T10:50:30.604Z,10.00
2018-12-19T10:52:58.450Z,11.37
2018-12-19T10:55:26.340Z,10.33
2018-12-19T10:57:54.211Z,10.97
2018-12-19T11:00:27.565Z,11.33
2018-12-19T11:02:55.488Z,11.00
2018-12-19T11:05:23.419Z,10.83
2018-12-19T11:07:51.410Z,10.50
2018-12-19T11:10:19.525Z,11.10
2018-12-19T11:12:47.444Z,9.87
2018-12-19T11:15:15.343Z,10.63
2018-12-19T11:17:43.232Z,9.63
2018-12-19T11:20:11.092Z,10.03
2018-12-19T11:22:39.063Z,10.57
2018-12-19T11:25:07.489Z,9.90
2018-12-19T11:27:35.343Z,10.30
2018-12-19T11:30:03.993Z,9.27
2018-12-19T11:32:31.888Z,9.57
2018-12-19T11:34:59.741Z,9.97
2018-12-19T11:37:27.614Z,10.30
2018-12-19T11:39:55.522Z,10.43
2018-12-19T11:42:23.438Z,9.57
2018-12-19T11:44:51.356Z,10.17
2018-12-19T11:47:19.240Z,10.37
2018-12-19T11:49:47.104Z,9.63
2018-12-19T11:52:15.008Z,10.10
2018-12-19T11:54:42.932Z,9.80
2018-12-19T11:57:11.048Z,9.47
2018-12-19T11:59:39.001Z,11.23
2018-12-19T12:02:06.916Z,10.63
2018-12-19T12:04:34.836Z,9.70
2018-12-19T12:07:02.885Z,9.27
2018-12-19T12:09:30.830Z,8.70
2018-12-19T12:11:58.720Z,7.97
2018-12-19T12:14:26.724Z,9.83
2018-12-19T12:16:54.639Z,9.20
2018-12-19T12:19:22.502Z,8.60
2018-12-19T12:21:50.397Z,8.40
2018-12-19T12:24:18.320Z,8.43
2018-12-19T12:26:46.216Z,8.73
2018-12-19T12:29:14.087Z,8.93
2018-12-19T12:31:42.021Z,9.43
2018-12-19T12:34:09.943Z,9.10
2018-12-19T12:36:37.843Z,9.97
2018-12-19T12:39:07.569Z,9.47
2018-12-19T12:41:35.593Z,8.27
2018-12-19T12:44:03.536Z,7.83
2018-12-19T12:46:31.448Z,8.47
2018-12-19T12:48:59.390Z,7.50
2018-12-19T12:51:27.300Z,8.50
2018-12-19T12:53:55.217Z,8.67
2018-12-19T12:56:23.104Z,7.73
2018-12-19T12:58:51.020Z,9.70
2018-12-19T13:01:18.887Z,9.17
2018-12-19T13:03:46.820Z,8.17
2018-12-19T13:06:14.720Z,9.47
2018-12-19T13:08:42.605Z,9.47
2018-12-19T13:11:10.493Z,8.73
2018-12-19T13:13:38.432Z,7.87
2018-12-19T13:16:06.408Z,6.63
2018-12-19T13:18:34.367Z,6.93
2018-12-19T13:21:02.262Z,7.07
2018-12-19T13:23:30.169Z,6.50
2018-12-19T13:25:58.008Z,6.63
2018-12-19T13:28:25.901Z,6.47
2018-12-19T13:30:53.781Z,6.40
2018-12-19T13:33:21.756Z,6.60
2018-12-19T13:35:49.619Z,6.03
2018-12-19T13:38:17.455Z,6.03
2018-12-19T13:40:45.368Z,6.47
2018-12-19T13:43:13.279Z,6.00
2018-12-19T13:45:41.156Z,7.77
2018-12-19T13:48:08.999Z,7.40
2018-12-19T13:50:36.912Z,7.27
2018-12-19T13:53:04.859Z,8.87
2018-12-19T13:55:32.711Z,9.00
2018-12-19T13:58:06.892Z,8.60
2018-12-19T14:00:30.756Z,9.43
2018-12-19T14:02:58.620Z,9.60
2018-12-19T14:05:26.479Z,8.83
2018-12-19T14:07:54.400Z,9.43
2018-12-19T14:10:22.296Z,9.97
2018-12-19T14:12:50.256Z,9.83
2018-12-19T14:15:18.235Z,10.47
2018-12-19T14:17:46.218Z,10.43
2018-12-19T14:20:14.160Z,10.80
2018-12-19T14:22:42.092Z,10.63
2018-12-19T14:25:10.034Z,10.60
2018-12-19T14:27:37.956Z,9.83
2018-12-19T14:30:07.288Z,10.00
2018-12-19T14:32:35.361Z,9.97
2018-12-19T14:35:03.560Z,10.37
2018-12-19T14:37:31.422Z,10.37
2018-12-19T14:39:59.307Z,10.17
2018-12-19T14:42:27.172Z,10.27
2018-12-19T14:44:55.363Z,10.43
2018-12-19T14:47:23.287Z,10.30
2018-12-19T14:49:51.152Z,12.40
2018-12-19T14:52:19.013Z,11.33
2018-12-19T14:54:46.913Z,11.57
2018-12-19T14:57:14.820Z,10.27
2018-12-19T14:59:42.713Z,9.83
2018-12-19T15:02:10.660Z,9.23
2018-12-19T15:04:38.499Z,10.03
2018-12-19T15:07:06.455Z,10.23
2018-12-19T15:09:34.393Z,10.90
2018-12-19T15:12:02.438Z,10.63
2018-12-19T15:14:30.318Z,10.37
2018-12-19T15:16:58.419Z,11.50
2018-12-19T15:19:26.537Z,9.87
2018-12-19T15:21:54.464Z,10.77
2018-12-19T15:24:22.344Z,9.80
2018-12-19T15:26:50.267Z,10.80
2018-12-19T15:29:18.149Z,10.90
2018-12-19T15:31:46.151Z,10.13
2018-12-19T15:34:14.019Z,10.73
2018-12-19T15:36:41.895Z,9.67
2018-12-19T15:39:09.781Z,10.37
2018-12-19T15:41:37.634Z,11.73
2018-12-19T15:44:05.552Z,11.33
2018-12-19T15:46:34.003Z,10.23
2018-12-19T15:49:02.412Z,11.03
2018-12-19T15:51:30.357Z,9.67
2018-12-19T15:53:58.780Z,10.10
2018-12-19T15:56:26.936Z,10.07
2018-12-19T16:01:55.845Z,12.07
2018-12-19T16:04:23.870Z,15.67
2018-12-19T16:06:52.190Z,17.53
2018-12-19T16:09:20.156Z,19.07
2018-12-19T16:11:48.019Z,17.67
2018-12-19T16:14:15.922Z,14.93
2018-12-19T16:16:43.883Z,9.67
2018-12-19T16:19:11.746Z,10.30
2018-12-19T16:21:39.824Z,10.20
2018-12-19T16:24:07.700Z,9.50
2018-12-19T16:26:35.593Z,10.33
2018-12-19T16:29:03.488Z,11.83
2018-12-19T16:31:31.367Z,10.80
2018-12-19T16:33:59.426Z,10.97
2018-12-19T16:36:27.336Z,10.07
2018-12-19T16:38:55.251Z,10.73
2018-12-19T16:41:23.158Z,9.90
2018-12-19T16:43:51.080Z,9.97
2018-12-19T16:46:18.970Z,11.67
2018-12-19T16:48:46.876Z,11.30
2018-12-19T16:51:14.791Z,12.20
2018-12-19T16:53:42.788Z,11.17
2018-12-19T16:56:10.731Z,10.20
2018-12-19T16:58:38.580Z,10.20
2018-12-19T17:01:06.584Z,10.67
2018-12-19T17:03:34.519Z,11.07
2018-12-19T17:06:02.445Z,10.90
2018-12-19T17:08:30.332Z,11.27
2018-12-19T17:10:58.195Z,11.90
2018-12-19T17:13:26.068Z,11.50
2018-12-19T17:15:54.103Z,12.97
2018-12-19T17:18:22.014Z,12.17
2018-12-19T17:20:49.895Z,14.23
2018-12-19T17:23:17.823Z,12.30
2018-12-19T17:25:45.796Z,12.93
2018-12-19T17:28:13.714Z,12.33
2018-12-19T17:30:41.630Z,12.10
2018-12-19T17:33:09.529Z,11.83
2018-12-19T17:35:37.393Z,10.70
2018-12-19T17:38:05.424Z,11.80
2018-12-19T17:40:33.256Z,10.80
2018-12-19T17:43:01.149Z,14.50
2018-12-19T17:45:29.074Z,20.90
2018-12-19T17:47:56.975Z,10.93
2018-12-19T17:50:24.920Z,11.43
2018-12-19T17:52:52.823Z,10.93
2018-12-19T17:55:20.699Z,13.10
2018-12-19T17:57:48.598Z,12.30
2018-12-19T18:00:16.540Z,11.93
2018-12-19T18:02:44.446Z,11.43
2018-12-19T18:05:12.466Z,11.37
2018-12-19T18:07:40.379Z,11.50
2018-12-19T18:10:08.283Z,11.47
2018-12-19T18:12:36.229Z,12.07
2018-12-19T18:15:04.490Z,11.73
2018-12-19T18:17:32.447Z,10.73
2018-12-19T18:20:00.328Z,12.13
2018-12-19T18:22:28.247Z,14.33
2018-12-19T18:24:56.126Z,12.27
2018-12-19T18:27:24.054Z,12.73
2018-12-19T18:29:51.967Z,12.17
2018-12-19T18:32:19.832Z,11.87
2018-12-19T18:34:47.748Z,12.07
2018-12-19T18:37:15.636Z,13.23
2018-12-19T18:39:43.580Z,12.50
2018-12-19T18:42:23.638Z,13.50
2018-12-19T18:44:51.571Z,13.47
2018-12-19T18:47:19.432Z,11.93
2018-12-19T18:49:47.420Z,12.03
2018-12-19T18:52:15.307Z,12.33
2018-12-19T18:54:43.341Z,12.17
2018-12-19T18:57:11.223Z,15.20
2018-12-19T18:59:39.116Z,13.23
2018-12-19T19:02:07.137Z,14.30
2018-12-19T19:04:35.329Z,13.70
2018-12-19T19:07:03.288Z,14.17
2018-12-19T19:09:31.253Z,12.83
2018-12-19T19:11:59.130Z,15.10
2018-12-19T19:14:27.086Z,17.60
2018-12-19T19:16:55.156Z,17.67
2018-12-19T19:19:23.112Z,16.90
2018-12-19T19:21:50.959Z,16.77
2018-12-19T19:24:18.911Z,18.50
2018-12-19T19:26:46.816Z,15.83
2018-12-19T19:29:14.688Z,13.47
2018-12-19T19:31:42.639Z,13.67
2018-12-19T19:34:10.651Z,14.53
2018-12-19T19:36:41.288Z,12.93
2018-12-19T19:39:15.837Z,13.00
2018-12-19T19:41:44.743Z,13.87
2018-12-19T19:44:16.387Z,12.10
2018-12-19T19:46:45.538Z,12.37
2018-12-19T19:49:27.856Z,12.80
2018-12-19T19:51:55.729Z,12.67
2018-12-19T19:54:23.622Z,12.70
2018-12-19T19:56:51.510Z,13.37
2018-12-19T19:59:19.370Z,12.83
2018-12-19T20:01:47.330Z,12.10
2018-12-19T20:04:15.309Z,12.73
2018-12-19T20:06:43.177Z,13.33
2018-12-19T20:09:13.241Z,12.37
2018-12-19T20:11:41.121Z,12.53
2018-12-19T20:14:09.046Z,11.80
2018-12-19T20:16:41.451Z,13.00
2018-12-19T20:19:19.244Z,13.13
2018-12-19T20:21:47.123Z,12.13
2018-12-19T20:24:15.139Z,14.63
2018-12-19T20:26:43.029Z,13.67
2018-12-19T20:29:10.892Z,14.33
2018-12-19T20:31:38.801Z,14.33
2018-12-19T20:34:06.686Z,16.13
2018-12-19T20:36:34.544Z,15.50
2018-12-19T20:39:02.564Z,14.97
2018-12-19T20:41:30.480Z,15.30
2018-12-19T20:43:58.361Z,14.80
2018-12-19T20:46:26.236Z,12.63
2018-12-19T20:48:54.176Z,17.30
2018-12-19T20:51:22.074Z,15.03
2018-12-19T20:53:52.208Z,21.30
2018-12-19T20:56:20.194Z,18.47
2018-12-19T20:58:48.133Z,17.27
2018-12-19T21:01:16.759Z,15.17
2018-12-19T21:03:45.351Z,14.47
2018-12-19T21:06:13.410Z,13.67
2018-12-19T21:08:41.327Z,13.80
2018-12-19T21:11:09.213Z,13.73
2018-12-19T21:16:11.763Z,13.57
2018-12-19T21:18:45.218Z,13.33
2018-12-19T21:21:13.744Z,12.87
2018-12-19T21:23:41.622Z,13.97
2018-12-19T21:26:09.516Z,13.60
2018-12-19T21:28:37.384Z,13.93
2018-12-19T21:31:05.223Z,14.37
2018-12-19T21:33:33.134Z,12.00
2018-12-19T21:36:01.022Z,12.60
2018-12-19T21:38:28.979Z,12.20
2018-12-19T21:40:56.882Z,12.43
2018-12-19T21:43:24.884Z,11.97
2018-12-19T21:45:53.770Z,12.93
2018-12-19T21:48:21.893Z,12.87
2018-12-19T21:50:49.844Z,12.37
2018-12-19T21:53:17.760Z,13.57
2018-12-19T21:55:45.800Z,14.20
2018-12-19T21:58:13.691Z,13.33
2018-12-19T22:00:41.755Z,13.20
2018-12-19T22:03:09.735Z,14.00
2018-12-19T22:05:39.439Z,12.30
2018-12-19T22:08:07.446Z,12.60
2018-12-19T22:10:35.401Z,12.63
2018-12-19T22:13:03.480Z,12.13
2018-12-19T22:15:31.413Z,13.10
2018-12-19T22:18:05.042Z,12.83
2018-12-19T22:20:33.091Z,13.13
2018-12-19T22:23:01.222Z,11.00
2018-12-19T22:25:29.176Z,12.23
2018-12-19T22:27:57.172Z,12.00
2018-12-19T22:30:25.091Z,11.53
2018-12-19T22:33:02.777Z,12.83
2018-12-19T22:35:30.662Z,11.93
2018-12-19T22:37:58.609Z,12.57
2018-12-19T22:40:26.693Z,14.90
2018-12-19T22:42:54.759Z,15.53
2018-12-19T22:45:22.685Z,14.77
2018-12-19T22:47:50.605Z,14.70
2018-12-19T22:50:18.829Z,13.90
2018-12-19T22:52:47.226Z,15.07
2018-12-19T22:55:15.329Z,13.67
2018-12-19T22:57:43.348Z,14.80
2018-12-19T23:00:16.293Z,18.87
2018-12-19T23:02:51.002Z,19.10
2018-12-19T23:05:24.926Z,15.70
2018-12-19T23:07:52.997Z,14.27
2018-12-19T23:10:21.009Z,13.27
2018-12-19T23:12:49.033Z,13.67
2018-12-19T23:15:18.857Z,15.60
2018-12-19T23:17:47.011Z,14.90
2018-12-19T23:20:15.255Z,13.83
2018-12-19T23:22:43.124Z,15.37
2018-12-19T23:25:11.322Z,14.20
2018-12-19T23:27:39.342Z,14.60
2018-12-19T23:30:08.319Z,16.10
2018-12-19T23:32:36.875Z,14.60
2018-12-19T23:35:05.165Z,15.37
2018-12-19T23:37:33.296Z,14.60
2018-12-19T23:40:01.262Z,15.17
2018-12-19T23:42:29.264Z,14.20
2018-12-19T23:44:57.297Z,13.77
2018-12-19T23:47:25.337Z,13.67
2018-12-19T23:49:53.265Z,14.17
2018-12-19T23:52:21.163Z,14.77
2018-12-19T23:54:49.098Z,14.53
2018-12-19T23:57:16.976Z,14.03
2018-12-19T23:59:44.856Z,15.03
